Flight Track Log - Related Links

Times and Time Zones

All times are in EDT time to prevent confusion due to time zone crossing. See the TAM3211 flight status page for this flight to view local times or setup timezone preferences in your user account.


Time Position Orientation Groundspeed Altitude Reporting Facility
EDT Latitude Longitude Course Direction KTS MPH feet Rate Location/Type
Mon 05:22:00 AM -20.8975 -44.8002 212° Southwest  Level Estimated
Mon 05:23:00 AM -20.9523 -44.8367 212° Southwest  Level Estimated
Mon 05:24:00 AM -21.0072 -44.8732 212° Southwest  Level Estimated
Mon 05:25:00 AM -21.0620 -44.9097 212° Southwest  Level Estimated
Mon 05:26:00 AM -21.1168 -44.9462 212° Southwest  Level Estimated
Mon 05:27:00 AM -21.1716 -44.9828 212° Southwest  Level Estimated
Mon 05:28:00 AM -21.2265 -45.0194 212° Southwest  Level Estimated
Mon 05:29:00 AM -21.2813 -45.0560 212° Southwest  Level Estimated
Mon 05:30:00 AM -21.3361 -45.0926 212° Southwest  Level Estimated
Mon 05:31:00 AM -21.3909 -45.1293 212° Southwest  Level Estimated
Mon 05:32:00 AM -21.4456 -45.1660 212° Southwest  Level Estimated
Mon 05:33:00 AM -21.5004 -45.2027 212° Southwest  Level Estimated
Mon 05:34:00 AM -21.5552 -45.2395 212° Southwest  Level Estimated
Mon 05:35:00 AM -21.6099 -45.2763 212° Southwest  Level Estimated
Mon 05:36:00 AM -21.6647 -45.3131 212° Southwest  Level Estimated
Mon 05:37:00 AM -21.7194 -45.3499 212° Southwest  Level Estimated
Mon 05:38:00 AM -21.7742 -45.3868 212° Southwest  Level Estimated
Mon 05:39:00 AM -21.8289 -45.4237 212° Southwest  Level Estimated
Mon 05:40:00 AM -21.8836 -45.4606 212° Southwest  Level Estimated
Mon 05:41:00 AM -21.9383 -45.4976 212° Southwest  Level Estimated
Mon 05:42:00 AM -21.9930 -45.5346 212° Southwest  Level Estimated
Mon 05:43:00 AM -22.0477 -45.5716 212° Southwest  Level Estimated
Mon 05:44:00 AM -22.1024 -45.6086 212° Southwest  Level Estimated
Mon 05:45:00 AM -22.1571 -45.6457 212° Southwest  Level Estimated
Mon 05:46:00 AM -22.2117 -45.6828 212° Southwest  Level Estimated
Mon 05:47:00 AM -22.2664 -45.7199 212° Southwest  Level Estimated
Mon 05:48:00 AM -22.3211 -45.7571 212° Southwest  Level Estimated
Mon 05:49:00 AM -22.3757 -45.7942 212° Southwest  Level Estimated
Mon 05:50:00 AM -22.4303 -45.8315 212° Southwest  Level Estimated
Mon 05:51:00 AM -22.4849 -45.8687 212° Southwest  Level Estimated
Mon 05:52:00 AM -22.5396 -45.9060 212° Southwest  Level Estimated
Mon 05:53:00 AM -22.5942 -45.9433 212° Southwest  Level Estimated
Mon 05:54:00 AM -22.6488 -45.9806 212° Southwest  Level Estimated
Mon 05:55:00 AM -22.7034 -46.0179 212° Southwest  Level Estimated
Mon 05:56:00 AM -22.7579 -46.0553 212° Southwest  Level Estimated
Mon 05:57:00 AM -22.8125 -46.0928 212° Southwest  Level Estimated
Mon 05:58:00 AM -22.8671 -46.1302 212° Southwest  Level Estimated
Mon 05:59:00 AM -22.9216 -46.1677 212° Southwest  Level Estimated
Mon 06:00:00 AM -22.9762 -46.2052 212° Southwest  Level Estimated

Login

Don't have an account? Register now (free) for customized features, flight alerts, and more!